sensor_id;sensor_type;location;lat;lon;timestamp;temperature;humidity
14097;DHT22;7125;48.106;11.544;2022-11-21T00:01:54;3.90;99.90
14097;DHT22;7125;48.106;11.544;2022-11-21T00:04:20;3.90;99.90
14097;DHT22;7125;48.106;11.544;2022-11-21T00:06:49;3.90;99.90
14097;DHT22;7125;48.106;11.544;2022-11-21T00:09:17;3.90;99.90
14097;DHT22;7125;48.106;11.544;2022-11-21T00:11:44;3.80;99.90
14097;DHT22;7125;48.106;11.544;2022-11-21T00:14:12;3.80;99.90
14097;DHT22;7125;48.106;11.544;2022-11-21T00:16:39;3.80;99.90
14097;DHT22;7125;48.106;11.544;2022-11-21T00:19:06;3.80;99.90
14097;DHT22;7125;48.106;11.544;2022-11-21T00:21:33;3.70;99.90
14097;DHT22;7125;48.106;11.544;2022-11-21T00:24:00;3.70;99.90
14097;DHT22;7125;48.106;11.544;2022-11-21T00:26:28;3.70;99.90
14097;DHT22;7125;48.106;11.544;2022-11-21T00:28:56;3.80;99.90
14097;DHT22;7125;48.106;11.544;2022-11-21T00:31:23;3.80;99.90
14097;DHT22;7125;48.106;11.544;2022-11-21T00:33:50;3.70;99.90
14097;DHT22;7125;48.106;11.544;2022-11-21T00:36:17;3.70;99.90
14097;DHT22;7125;48.106;11.544;2022-11-21T00:38:44;3.80;99.90
14097;DHT22;7125;48.106;11.544;2022-11-21T00:41:11;3.70;99.90
14097;DHT22;7125;48.106;11.544;2022-11-21T00:43:39;3.80;99.90
14097;DHT22;7125;48.106;11.544;2022-11-21T00:46:07;3.80;99.90
14097;DHT22;7125;48.106;11.544;2022-11-21T00:48:34;3.80;99.90
14097;DHT22;7125;48.106;11.544;2022-11-21T00:51:02;3.80;99.90
14097;DHT22;7125;48.106;11.544;2022-11-21T00:53:29;3.90;99.90
14097;DHT22;7125;48.106;11.544;2022-11-21T00:55:56;3.90;99.90
14097;DHT22;7125;48.106;11.544;2022-11-21T00:58:23;3.80;99.90
14097;DHT22;7125;48.106;11.544;2022-11-21T01:00:52;3.80;99.90
14097;DHT22;7125;48.106;11.544;2022-11-21T01:03:27;3.80;99.90
14097;DHT22;7125;48.106;11.544;2022-11-21T01:05:59;3.80;99.90
14097;DHT22;7125;48.106;11.544;2022-11-21T01:08:26;3.80;99.90
14097;DHT22;7125;48.106;11.544;2022-11-21T01:10:53;3.80;99.90
14097;DHT22;7125;48.106;11.544;2022-11-21T01:13:21;3.80;99.90
14097;DHT22;7125;48.106;11.544;2022-11-21T01:15:48;3.80;99.90
14097;DHT22;7125;48.106;11.544;2022-11-21T01:18:16;3.80;99.90
14097;DHT22;7125;48.106;11.544;2022-11-21T01:20:43;3.90;99.90
14097;DHT22;7125;48.106;11.544;2022-11-21T01:23:11;3.90;99.90
14097;DHT22;7125;48.106;11.544;2022-11-21T01:25:38;3.90;99.90
14097;DHT22;7125;48.106;11.544;2022-11-21T01:28:05;3.90;99.90
14097;DHT22;7125;48.106;11.544;2022-11-21T01:30:31;4.00;99.90
14097;DHT22;7125;48.106;11.544;2022-11-21T01:32:58;4.00;99.90
14097;DHT22;7125;48.106;11.544;2022-11-21T01:35:26;4.00;99.90
14097;DHT22;7125;48.106;11.544;2022-11-21T01:37:53;4.00;99.90
14097;DHT22;7125;48.106;11.544;2022-11-21T01:40:20;4.00;99.90
14097;DHT22;7125;48.106;11.544;2022-11-21T01:42:57;4.10;99.90
14097;DHT22;7125;48.106;11.544;2022-11-21T01:48:33;4.00;99.90
14097;DHT22;7125;48.106;11.544;2022-11-21T01:51:09;4.10;99.90
14097;DHT22;7125;48.106;11.544;2022-11-21T01:53:37;4.10;99.90
14097;DHT22;7125;48.106;11.544;2022-11-21T01:56:06;4.10;99.90
14097;DHT22;7125;48.106;11.544;2022-11-21T01:58:34;4.10;99.90
14097;DHT22;7125;48.106;11.544;2022-11-21T02:01:02;4.10;99.90
14097;DHT22;7125;48.106;11.544;2022-11-21T02:03:32;4.10;99.90
14097;DHT22;7125;48.106;11.544;2022-11-21T02:06:02;4.10;99.90
14097;DHT22;7125;48.106;11.544;2022-11-21T02:08:31;4.20;99.90
14097;DHT22;7125;48.106;11.544;2022-11-21T02:11:07;4.20;99.90
14097;DHT22;7125;48.106;11.544;2022-11-21T02:13:35;4.20;99.90
14097;DHT22;7125;48.106;11.544;2022-11-21T02:16:04;4.20;99.90
14097;DHT22;7125;48.106;11.544;2022-11-21T02:18:31;4.10;99.90
14097;DHT22;7125;48.106;11.544;2022-11-21T02:21:06;4.20;99.90
14097;DHT22;7125;48.106;11.544;2022-11-21T02:23:40;4.10;99.90
14097;DHT22;7125;48.106;11.544;2022-11-21T02:26:12;4.10;99.90
14097;DHT22;7125;48.106;11.544;2022-11-21T02:28:40;4.20;99.90
14097;DHT22;7125;48.106;11.544;2022-11-21T02:31:07;4.10;99.90
14097;DHT22;7125;48.106;11.544;2022-11-21T02:33:35;4.10;99.90
14097;DHT22;7125;48.106;11.544;2022-11-21T02:36:02;4.10;99.90
14097;DHT22;7125;48.106;11.544;2022-11-21T02:38:34;4.10;99.90
14097;DHT22;7125;48.106;11.544;2022-11-21T02:41:06;4.10;99.90
14097;DHT22;7125;48.106;11.544;2022-11-21T02:43:40;4.10;99.90
14097;DHT22;7125;48.106;11.544;2022-11-21T02:46:07;4.10;99.90
14097;DHT22;7125;48.106;11.544;2022-11-21T02:48:36;4.10;99.90
14097;DHT22;7125;48.106;11.544;2022-11-21T02:51:04;4.10;99.90
14097;DHT22;7125;48.106;11.544;2022-11-21T02:53:30;4.10;99.90
14097;DHT22;7125;48.106;11.544;2022-11-21T02:55:57;4.00;99.90
14097;DHT22;7125;48.106;11.544;2022-11-21T02:58:24;4.00;99.90
14097;DHT22;7125;48.106;11.544;2022-11-21T03:00:52;4.00;99.90
14097;DHT22;7125;48.106;11.544;2022-11-21T03:03:19;4.00;99.90
14097;DHT22;7125;48.106;11.544;2022-11-21T03:05:46;4.00;99.90
14097;DHT22;7125;48.106;11.544;2022-11-21T03:08:13;4.00;99.90
14097;DHT22;7125;48.106;11.544;2022-11-21T03:10:40;4.10;99.90
14097;DHT22;7125;48.106;11.544;2022-11-21T03:13:07;4.20;99.90
14097;DHT22;7125;48.106;11.544;2022-11-21T03:15:34;4.20;99.90
14097;DHT22;7125;48.106;11.544;2022-11-21T03:18:04;4.20;99.90
14097;DHT22;7125;48.106;11.544;2022-11-21T03:20:34;4.20;99.90
14097;DHT22;7125;48.106;11.544;2022-11-21T03:23:01;4.20;99.90
14097;DHT22;7125;48.106;11.544;2022-11-21T03:25:28;4.10;99.90
14097;DHT22;7125;48.106;11.544;2022-11-21T03:27:55;4.10;99.90
14097;DHT22;7125;48.106;11.544;2022-11-21T03:30:24;4.00;99.90
14097;DHT22;7125;48.106;11.544;2022-11-21T03:32:54;4.00;99.90
14097;DHT22;7125;48.106;11.544;2022-11-21T03:35:23;3.90;99.90
14097;DHT22;7125;48.106;11.544;2022-11-21T03:37:50;3.90;99.90
14097;DHT22;7125;48.106;11.544;2022-11-21T03:40:17;3.90;99.90
14097;DHT22;7125;48.106;11.544;2022-11-21T03:42:44;3.90;99.90
14097;DHT22;7125;48.106;11.544;2022-11-21T03:45:10;3.80;99.90
14097;DHT22;7125;48.106;11.544;2022-11-21T03:47:37;3.80;99.90
14097;DHT22;7125;48.106;11.544;2022-11-21T03:50:05;3.70;99.90
14097;DHT22;7125;48.106;11.544;2022-11-21T03:52:33;3.70;99.90
14097;DHT22;7125;48.106;11.544;2022-11-21T03:55:00;3.70;99.90
14097;DHT22;7125;48.106;11.544;2022-11-21T03:57:27;3.70;99.90
14097;DHT22;7125;48.106;11.544;2022-11-21T03:59:54;3.70;99.90
14097;DHT22;7125;48.106;11.544;2022-11-21T04:02:21;3.70;99.90
14097;DHT22;7125;48.106;11.544;2022-11-21T04:04:48;3.80;99.90
14097;DHT22;7125;48.106;11.544;2022-11-21T04:07:14;3.80;99.90
14097;DHT22;7125;48.106;11.544;2022-11-21T04:09:43;3.80;99.90
14097;DHT22;7125;48.106;11.544;2022-11-21T04:12:10;3.90;99.90
14097;DHT22;7125;48.106;11.544;2022-11-21T04:14:37;3.90;99.90
14097;DHT22;7125;48.106;11.544;2022-11-21T04:17:04;4.00;99.90
14097;DHT22;7125;48.106;11.544;2022-11-21T04:19:31;4.00;99.90
14097;DHT22;7125;48.106;11.544;2022-11-21T04:21:57;4.00;99.90
14097;DHT22;7125;48.106;11.544;2022-11-21T04:24:24;4.00;99.90
14097;DHT22;7125;48.106;11.544;2022-11-21T04:26:54;4.00;99.90
14097;DHT22;7125;48.106;11.544;2022-11-21T04:29:21;4.00;99.90
14097;DHT22;7125;48.106;11.544;2022-11-21T04:31:48;4.10;99.90
14097;DHT22;7125;48.106;11.544;2022-11-21T04:34:15;4.10;99.90
14097;DHT22;7125;48.106;11.544;2022-11-21T04:36:42;4.20;99.90
14097;DHT22;7125;48.106;11.544;2022-11-21T04:39:09;4.20;99.90
14097;DHT22;7125;48.106;11.544;2022-11-21T04:41:36;4.20;99.90
14097;DHT22;7125;48.106;11.544;2022-11-21T04:44:04;4.30;99.90
14097;DHT22;7125;48.106;11.544;2022-11-21T04:46:31;4.30;99.90
14097;DHT22;7125;48.106;11.544;2022-11-21T04:48:58;4.30;99.90
14097;DHT22;7125;48.106;11.544;2022-11-21T04:51:25;4.30;99.90
14097;DHT22;7125;48.106;11.544;2022-11-21T04:53:52;4.30;99.90
14097;DHT22;7125;48.106;11.544;2022-11-21T04:56:19;4.20;99.90
14097;DHT22;7125;48.106;11.544;2022-11-21T04:58:45;4.20;99.90
14097;DHT22;7125;48.106;11.544;2022-11-21T05:01:14;4.20;99.90
14097;DHT22;7125;48.106;11.544;2022-11-21T05:03:41;4.20;99.90
14097;DHT22;7125;48.106;11.544;2022-11-21T05:06:07;4.20;99.90
14097;DHT22;7125;48.106;11.544;2022-11-21T05:08:34;4.10;99.90
14097;DHT22;7125;48.106;11.544;2022-11-21T05:11:01;4.10;99.90
14097;DHT22;7125;48.106;11.544;2022-11-21T05:13:45;4.00;99.90
14097;DHT22;7125;48.106;11.544;2022-11-21T05:16:13;4.00;99.90
14097;DHT22;7125;48.106;11.544;2022-11-21T05:18:40;4.00;99.90
14097;DHT22;7125;48.106;11.544;2022-11-21T05:21:07;4.00;99.90
14097;DHT22;7125;48.106;11.544;2022-11-21T05:23:34;3.90;99.90
14097;DHT22;7125;48.106;11.544;2022-11-21T05:26:01;3.90;99.90
14097;DHT22;7125;48.106;11.544;2022-11-21T05:28:28;3.90;99.90
14097;DHT22;7125;48.106;11.544;2022-11-21T05:30:54;3.90;99.90
14097;DHT22;7125;48.106;11.544;2022-11-21T05:33:23;3.90;99.90
14097;DHT22;7125;48.106;11.544;2022-11-21T05:35:50;3.80;99.90
14097;DHT22;7125;48.106;11.544;2022-11-21T05:38:16;3.90;99.90
14097;DHT22;7125;48.106;11.544;2022-11-21T05:40:43;3.80;99.90
14097;DHT22;7125;48.106;11.544;2022-11-21T05:43:11;3.90;99.90
14097;DHT22;7125;48.106;11.544;2022-11-21T05:45:55;3.80;99.90
14097;DHT22;7125;48.106;11.544;2022-11-21T05:48:23;3.70;99.90
14097;DHT22;7125;48.106;11.544;2022-11-21T05:50:50;3.70;99.90
14097;DHT22;7125;48.106;11.544;2022-11-21T05:53:17;3.60;99.90
14097;DHT22;7125;48.106;11.544;2022-11-21T05:55:44;3.60;99.90
14097;DHT22;7125;48.106;11.544;2022-11-21T05:58:11;3.60;99.90
14097;DHT22;7125;48.106;11.544;2022-11-21T06:00:38;3.60;99.90
14097;DHT22;7125;48.106;11.544;2022-11-21T06:03:05;3.70;99.90
14097;DHT22;7125;48.106;11.544;2022-11-21T06:05:51;3.70;99.90
14097;DHT22;7125;48.106;11.544;2022-11-21T06:08:18;3.80;99.90
14097;DHT22;7125;48.106;11.544;2022-11-21T06:10:45;3.80;99.90
14097;DHT22;7125;48.106;11.544;2022-11-21T06:13:12;3.80;99.90
14097;DHT22;7125;48.106;11.544;2022-11-21T06:15:52;3.80;99.90
14097;DHT22;7125;48.106;11.544;2022-11-21T06:18:21;3.80;99.90
14097;DHT22;7125;48.106;11.544;2022-11-21T06:20:48;3.90;99.90
14097;DHT22;7125;48.106;11.544;2022-11-21T06:23:17;3.90;99.90
14097;DHT22;7125;48.106;11.544;2022-11-21T06:25:44;3.90;99.90
14097;DHT22;7125;48.106;11.544;2022-11-21T06:28:12;3.90;99.90
14097;DHT22;7125;48.106;11.544;2022-11-21T06:30:39;3.90;99.90
14097;DHT22;7125;48.106;11.544;2022-11-21T06:33:06;3.90;99.90
14097;DHT22;7125;48.106;11.544;2022-11-21T06:35:36;3.90;99.90
14097;DHT22;7125;48.106;11.544;2022-11-21T06:38:03;3.80;99.90
14097;DHT22;7125;48.106;11.544;2022-11-21T06:40:31;3.90;99.90
14097;DHT22;7125;48.106;11.544;2022-11-21T06:42:58;3.90;99.90
14097;DHT22;7125;48.106;11.544;2022-11-21T06:45:25;3.90;99.90
14097;DHT22;7125;48.106;11.544;2022-11-21T06:47:52;3.90;99.90
14097;DHT22;7125;48.106;11.544;2022-11-21T06:50:19;4.00;99.90
14097;DHT22;7125;48.106;11.544;2022-11-21T06:52:47;4.00;99.90
14097;DHT22;7125;48.106;11.544;2022-11-21T06:55:14;4.00;99.90
14097;DHT22;7125;48.106;11.544;2022-11-21T06:57:42;4.00;99.90
14097;DHT22;7125;48.106;11.544;2022-11-21T07:00:10;4.00;99.90
14097;DHT22;7125;48.106;11.544;2022-11-21T07:02:37;4.10;99.90
14097;DHT22;7125;48.106;11.544;2022-11-21T07:05:05;4.10;99.90
14097;DHT22;7125;48.106;11.544;2022-11-21T07:07:32;4.10;99.90
14097;DHT22;7125;48.106;11.544;2022-11-21T07:09:59;4.00;99.90
14097;DHT22;7125;48.106;11.544;2022-11-21T07:12:26;4.00;99.90
14097;DHT22;7125;48.106;11.544;2022-11-21T07:15:12;4.00;99.90
14097;DHT22;7125;48.106;11.544;2022-11-21T07:17:39;4.00;99.90
14097;DHT22;7125;48.106;11.544;2022-11-21T07:20:07;4.00;99.90
14097;DHT22;7125;48.106;11.544;2022-11-21T07:22:34;3.90;99.90
14097;DHT22;7125;48.106;11.544;2022-11-21T07:25:02;3.90;99.90
14097;DHT22;7125;48.106;11.544;2022-11-21T07:27:29;3.90;99.90
14097;DHT22;7125;48.106;11.544;2022-11-21T07:29:56;3.90;99.90
14097;DHT22;7125;48.106;11.544;2022-11-21T07:32:25;3.90;99.90
14097;DHT22;7125;48.106;11.544;2022-11-21T07:34:52;3.80;99.90
14097;DHT22;7125;48.106;11.544;2022-11-21T07:37:19;3.80;99.90
14097;DHT22;7125;48.106;11.544;2022-11-21T07:39:46;3.70;99.90
14097;DHT22;7125;48.106;11.544;2022-11-21T07:42:13;3.70;99.90
14097;DHT22;7125;48.106;11.544;2022-11-21T07:44:40;3.70;99.90
14097;DHT22;7125;48.106;11.544;2022-11-21T07:47:07;3.70;99.90
14097;DHT22;7125;48.106;11.544;2022-11-21T07:49:35;3.70;99.90
14097;DHT22;7125;48.106;11.544;2022-11-21T07:52:03;3.70;99.90
14097;DHT22;7125;48.106;11.544;2022-11-21T07:54:30;3.70;99.90
14097;DHT22;7125;48.106;11.544;2022-11-21T07:56:57;3.70;99.90
14097;DHT22;7125;48.106;11.544;2022-11-21T07:59:24;3.60;99.90
14097;DHT22;7125;48.106;11.544;2022-11-21T08:01:50;3.60;99.90
14097;DHT22;7125;48.106;11.544;2022-11-21T08:04:17;3.60;99.90
14097;DHT22;7125;48.106;11.544;2022-11-21T08:06:46;3.60;99.90
14097;DHT22;7125;48.106;11.544;2022-11-21T08:09:13;3.70;99.90
14097;DHT22;7125;48.106;11.544;2022-11-21T08:11:40;3.70;99.90
14097;DHT22;7125;48.106;11.544;2022-11-21T08:14:06;3.70;99.90
14097;DHT22;7125;48.106;11.544;2022-11-21T08:16:34;3.80;99.90
14097;DHT22;7125;48.106;11.544;2022-11-21T08:19:01;3.80;99.90
14097;DHT22;7125;48.106;11.544;2022-11-21T08:21:28;3.80;99.90
14097;DHT22;7125;48.106;11.544;2022-11-21T08:23:57;3.80;99.90
14097;DHT22;7125;48.106;11.544;2022-11-21T08:26:24;3.80;99.90
14097;DHT22;7125;48.106;11.544;2022-11-21T08:28:51;3.80;99.90
14097;DHT22;7125;48.106;11.544;2022-11-21T08:31:17;3.80;99.90
14097;DHT22;7125;48.106;11.544;2022-11-21T08:33:45;3.90;99.90
14097;DHT22;7125;48.106;11.544;2022-11-21T08:36:12;3.90;99.90
14097;DHT22;7125;48.106;11.544;2022-11-21T08:38:39;4.00;99.90
14097;DHT22;7125;48.106;11.544;2022-11-21T08:41:11;4.10;99.90
14097;DHT22;7125;48.106;11.544;2022-11-21T08:43:55;4.20;99.90
14097;DHT22;7125;48.106;11.544;2022-11-21T08:46:23;4.20;99.90
14097;DHT22;7125;48.106;11.544;2022-11-21T08:48:53;4.30;99.90
14097;DHT22;7125;48.106;11.544;2022-11-21T08:51:20;4.30;99.90
14097;DHT22;7125;48.106;11.544;2022-11-21T08:53:47;4.50;99.90
14097;DHT22;7125;48.106;11.544;2022-11-21T08:56:16;4.50;99.90
14097;DHT22;7125;48.106;11.544;2022-11-21T08:58:43;4.50;99.90
14097;DHT22;7125;48.106;11.544;2022-11-21T09:01:10;4.60;99.90
14097;DHT22;7125;48.106;11.544;2022-11-21T09:03:38;4.70;99.90
14097;DHT22;7125;48.106;11.544;2022-11-21T09:06:05;4.70;99.90
14097;DHT22;7125;48.106;11.544;2022-11-21T09:08:32;4.80;99.90
14097;DHT22;7125;48.106;11.544;2022-11-21T09:11:02;4.90;99.90
14097;DHT22;7125;48.106;11.544;2022-11-21T09:13:31;4.90;99.90
14097;DHT22;7125;48.106;11.544;2022-11-21T09:15:58;5.10;99.90
14097;DHT22;7125;48.106;11.544;2022-11-21T09:18:44;5.20;99.90
14097;DHT22;7125;48.106;11.544;2022-11-21T09:21:13;5.20;99.90
14097;DHT22;7125;48.106;11.544;2022-11-21T09:23:40;5.30;99.90
14097;DHT22;7125;48.106;11.544;2022-11-21T09:26:07;5.40;99.90
14097;DHT22;7125;48.106;11.544;2022-11-21T09:28:39;5.50;99.90
14097;DHT22;7125;48.106;11.544;2022-11-21T09:31:07;5.50;99.90
14097;DHT22;7125;48.106;11.544;2022-11-21T09:33:34;5.50;99.90
14097;DHT22;7125;48.106;11.544;2022-11-21T09:36:02;5.50;99.90
14097;DHT22;7125;48.106;11.544;2022-11-21T09:38:29;5.50;99.90
14097;DHT22;7125;48.106;11.544;2022-11-21T09:41:05;5.50;99.90
14097;DHT22;7125;48.106;11.544;2022-11-21T09:44:03;5.50;99.90
14097;DHT22;7125;48.106;11.544;2022-11-21T09:46:38;5.40;99.90
14097;DHT22;7125;48.106;11.544;2022-11-21T09:49:11;5.40;99.90
14097;DHT22;7125;48.106;11.544;2022-11-21T09:51:40;5.50;99.90
14097;DHT22;7125;48.106;11.544;2022-11-21T09:54:15;5.60;99.90
14097;DHT22;7125;48.106;11.544;2022-11-21T09:56:44;5.60;99.90
14097;DHT22;7125;48.106;11.544;2022-11-21T09:59:26;5.70;99.90
14097;DHT22;7125;48.106;11.544;2022-11-21T10:01:55;5.80;99.90
14097;DHT22;7125;48.106;11.544;2022-11-21T10:04:22;6.00;99.90
14097;DHT22;7125;48.106;11.544;2022-11-21T10:06:57;6.00;99.90
14097;DHT22;7125;48.106;11.544;2022-11-21T10:09:38;6.30;99.90
14097;DHT22;7125;48.106;11.544;2022-11-21T10:12:15;6.50;99.90
14097;DHT22;7125;48.106;11.544;2022-11-21T10:15:31;6.60;99.90
14097;DHT22;7125;48.106;11.544;2022-11-21T10:18:19;6.60;99.90
14097;DHT22;7125;48.106;11.544;2022-11-21T10:20:54;6.70;99.90
14097;DHT22;7125;48.106;11.544;2022-11-21T10:23:38;6.70;99.90
14097;DHT22;7125;48.106;11.544;2022-11-21T10:26:14;6.70;99.90
14097;DHT22;7125;48.106;11.544;2022-11-21T10:28:49;6.70;99.90
14097;DHT22;7125;48.106;11.544;2022-11-21T10:31:19;6.70;99.90
14097;DHT22;7125;48.106;11.544;2022-11-21T10:33:48;6.70;99.90
14097;DHT22;7125;48.106;11.544;2022-11-21T10:36:23;6.60;99.90
14097;DHT22;7125;48.106;11.544;2022-11-21T10:38:54;6.50;99.90
14097;DHT22;7125;48.106;11.544;2022-11-21T10:41:36;6.40;99.90
14097;DHT22;7125;48.106;11.544;2022-11-21T10:44:12;6.20;99.90
14097;DHT22;7125;48.106;11.544;2022-11-21T10:47:00;6.10;99.90
14097;DHT22;7125;48.106;11.544;2022-11-21T10:49:28;6.00;99.90
14097;DHT22;7125;48.106;11.544;2022-11-21T10:52:00;6.00;99.90
14097;DHT22;7125;48.106;11.544;2022-11-21T10:54:30;5.90;99.90
14097;DHT22;7125;48.106;11.544;2022-11-21T10:57:06;5.90;99.90
14097;DHT22;7125;48.106;11.544;2022-11-21T10:59:36;5.80;99.90
14097;DHT22;7125;48.106;11.544;2022-11-21T11:02:22;5.80;99.90
14097;DHT22;7125;48.106;11.544;2022-11-21T11:05:16;5.80;99.90
14097;DHT22;7125;48.106;11.544;2022-11-21T11:07:58;5.80;99.90
14097;DHT22;7125;48.106;11.544;2022-11-21T11:10:26;5.80;99.90
14097;DHT22;7125;48.106;11.544;2022-11-21T11:12:53;5.90;99.90
14097;DHT22;7125;48.106;11.544;2022-11-21T11:15:52;6.00;99.90
14097;DHT22;7125;48.106;11.544;2022-11-21T11:18:21;6.00;99.90
14097;DHT22;7125;48.106;11.544;2022-11-21T11:20:49;6.10;99.90
14097;DHT22;7125;48.106;11.544;2022-11-21T11:23:26;6.20;99.90
14097;DHT22;7125;48.106;11.544;2022-11-21T11:25:55;6.30;99.90
14097;DHT22;7125;48.106;11.544;2022-11-21T11:28:23;6.40;99.90
14097;DHT22;7125;48.106;11.544;2022-11-21T11:30:51;6.50;99.90
14097;DHT22;7125;48.106;11.544;2022-11-21T11:33:30;6.60;99.90
14097;DHT22;7125;48.106;11.544;2022-11-21T11:36:09;6.70;99.90
14097;DHT22;7125;48.106;11.544;2022-11-21T11:38:37;6.70;99.90
14097;DHT22;7125;48.106;11.544;2022-11-21T11:41:12;6.80;99.90
14097;DHT22;7125;48.106;11.544;2022-11-21T11:43:49;6.90;99.90
14097;DHT22;7125;48.106;11.544;2022-11-21T11:46:43;6.90;99.90
14097;DHT22;7125;48.106;11.544;2022-11-21T11:49:34;6.90;99.90
14097;DHT22;7125;48.106;11.544;2022-11-21T11:52:28;6.90;99.90
14097;DHT22;7125;48.106;11.544;2022-11-21T11:55:01;6.90;99.90
14097;DHT22;7125;48.106;11.544;2022-11-21T11:57:30;7.10;99.90
14097;DHT22;7125;48.106;11.544;2022-11-21T12:00:05;7.40;99.90
14097;DHT22;7125;48.106;11.544;2022-11-21T12:02:46;7.60;99.90
14097;DHT22;7125;48.106;11.544;2022-11-21T12:05:22;7.70;99.90
14097;DHT22;7125;48.106;11.544;2022-11-21T12:08:04;7.80;99.90
14097;DHT22;7125;48.106;11.544;2022-11-21T12:10:39;7.80;99.90
14097;DHT22;7125;48.106;11.544;2022-11-21T12:13:27;7.90;99.90
14097;DHT22;7125;48.106;11.544;2022-11-21T12:15:58;8.10;99.90
14097;DHT22;7125;48.106;11.544;2022-11-21T12:18:32;8.20;99.90
14097;DHT22;7125;48.106;11.544;2022-11-21T12:21:07;8.30;99.90
14097;DHT22;7125;48.106;11.544;2022-11-21T12:23:42;8.30;99.90
14097;DHT22;7125;48.106;11.544;2022-11-21T12:26:23;8.30;99.90
14097;DHT22;7125;48.106;11.544;2022-11-21T12:29:01;8.10;99.90
14097;DHT22;7125;48.106;11.544;2022-11-21T12:31:38;8.10;99.90
14097;DHT22;7125;48.106;11.544;2022-11-21T12:34:18;8.10;99.90
14097;DHT22;7125;48.106;11.544;2022-11-21T12:36:55;8.20;99.90
14097;DHT22;7125;48.106;11.544;2022-11-21T12:42:32;8.60;99.90
14097;DHT22;7125;48.106;11.544;2022-11-21T12:45:27;8.80;99.90
14097;DHT22;7125;48.106;11.544;2022-11-21T12:51:39;8.90;99.90
14097;DHT22;7125;48.106;11.544;2022-11-21T12:57:17;8.50;99.90
14097;DHT22;7125;48.106;11.544;2022-11-21T12:59:54;8.30;99.90
14097;DHT22;7125;48.106;11.544;2022-11-21T13:02:30;8.20;99.90
14097;DHT22;7125;48.106;11.544;2022-11-21T13:05:00;8.00;99.90
14097;DHT22;7125;48.106;11.544;2022-11-21T13:07:30;7.90;99.90
14097;DHT22;7125;48.106;11.544;2022-11-21T13:10:00;7.80;99.90
14097;DHT22;7125;48.106;11.544;2022-11-21T13:12:35;7.70;99.90
14097;DHT22;7125;48.106;11.544;2022-11-21T13:15:15;7.60;99.90
14097;DHT22;7125;48.106;11.544;2022-11-21T13:17:47;7.50;99.90
14097;DHT22;7125;48.106;11.544;2022-11-21T13:20:28;7.50;99.90
14097;DHT22;7125;48.106;11.544;2022-11-21T13:22:58;7.40;99.90
14097;DHT22;7125;48.106;11.544;2022-11-21T13:25:42;7.40;99.90
14097;DHT22;7125;48.106;11.544;2022-11-21T13:28:31;7.40;99.90
14097;DHT22;7125;48.106;11.544;2022-11-21T13:30:59;7.40;99.90
14097;DHT22;7125;48.106;11.544;2022-11-21T13:36:37;7.40;99.90
14097;DHT22;7125;48.106;11.544;2022-11-21T13:39:31;7.50;99.90
14097;DHT22;7125;48.106;11.544;2022-11-21T13:42:02;7.50;99.90
14097;DHT22;7125;48.106;11.544;2022-11-21T13:44:48;7.60;99.90
14097;DHT22;7125;48.106;11.544;2022-11-21T13:50:21;7.60;99.90
14097;DHT22;7125;48.106;11.544;2022-11-21T13:52:57;7.60;99.90
14097;DHT22;7125;48.106;11.544;2022-11-21T13:55:40;7.60;99.90
14097;DHT22;7125;48.106;11.544;2022-11-21T13:58:22;7.60;99.90
14097;DHT22;7125;48.106;11.544;2022-11-21T14:04:04;7.50;99.90
14097;DHT22;7125;48.106;11.544;2022-11-21T14:06:39;7.40;99.90
14097;DHT22;7125;48.106;11.544;2022-11-21T14:09:29;7.40;99.90
14097;DHT22;7125;48.106;11.544;2022-11-21T14:12:00;7.30;99.90
14097;DHT22;7125;48.106;11.544;2022-11-21T14:14:32;7.30;99.90
14097;DHT22;7125;48.106;11.544;2022-11-21T14:17:33;7.10;99.90
14097;DHT22;7125;48.106;11.544;2022-11-21T14:20:12;7.10;99.90
14097;DHT22;7125;48.106;11.544;2022-11-21T14:22:42;7.00;99.90
14097;DHT22;7125;48.106;11.544;2022-11-21T14:25:16;7.00;99.90
14097;DHT22;7125;48.106;11.544;2022-11-21T14:27:46;6.90;99.90
14097;DHT22;7125;48.106;11.544;2022-11-21T14:30:33;6.90;99.90
14097;DHT22;7125;48.106;11.544;2022-11-21T14:33:27;6.80;99.90
14097;DHT22;7125;48.106;11.544;2022-11-21T14:36:02;6.70;99.90
14097;DHT22;7125;48.106;11.544;2022-11-21T14:38:31;6.60;99.90
14097;DHT22;7125;48.106;11.544;2022-11-21T14:41:22;6.60;99.90
14097;DHT22;7125;48.106;11.544;2022-11-21T14:43:50;6.50;99.90
14097;DHT22;7125;48.106;11.544;2022-11-21T14:46:29;6.40;99.90
14097;DHT22;7125;48.106;11.544;2022-11-21T14:49:15;6.30;99.90
14097;DHT22;7125;48.106;11.544;2022-11-21T14:51:44;6.20;99.90
14097;DHT22;7125;48.106;11.544;2022-11-21T14:54:15;6.10;99.90
14097;DHT22;7125;48.106;11.544;2022-11-21T14:56:45;6.00;99.90
14097;DHT22;7125;48.106;11.544;2022-11-21T14:59:19;5.90;99.90
14097;DHT22;7125;48.106;11.544;2022-11-21T15:01:58;5.80;99.90
14097;DHT22;7125;48.106;11.544;2022-11-21T15:04:27;5.80;99.90
14097;DHT22;7125;48.106;11.544;2022-11-21T15:06:54;5.60;99.90
14097;DHT22;7125;48.106;11.544;2022-11-21T15:09:20;5.50;99.90
14097;DHT22;7125;48.106;11.544;2022-11-21T15:11:51;5.40;99.90
14097;DHT22;7125;48.106;11.544;2022-11-21T15:14:23;5.20;99.90
14097;DHT22;7125;48.106;11.544;2022-11-21T15:16:54;5.10;99.90
14097;DHT22;7125;48.106;11.544;2022-11-21T15:19:24;5.00;99.90
14097;DHT22;7125;48.106;11.544;2022-11-21T15:21:53;4.80;99.90
14097;DHT22;7125;48.106;11.544;2022-11-21T15:24:34;4.80;99.90
14097;DHT22;7125;48.106;11.544;2022-11-21T15:27:28;4.70;99.90
14097;DHT22;7125;48.106;11.544;2022-11-21T15:30:04;4.60;99.90
14097;DHT22;7125;48.106;11.544;2022-11-21T15:32:34;4.50;99.90
14097;DHT22;7125;48.106;11.544;2022-11-21T15:35:44;4.40;99.90
14097;DHT22;7125;48.106;11.544;2022-11-21T15:38:14;4.30;99.90
14097;DHT22;7125;48.106;11.544;2022-11-21T15:40:57;4.20;99.90
14097;DHT22;7125;48.106;11.544;2022-11-21T15:43:40;4.10;99.90
14097;DHT22;7125;48.106;11.544;2022-11-21T15:46:14;4.00;99.90
14097;DHT22;7125;48.106;11.544;2022-11-21T15:48:41;3.90;99.90
14097;DHT22;7125;48.106;11.544;2022-11-21T15:51:10;3.90;99.90
14097;DHT22;7125;48.106;11.544;2022-11-21T15:53:38;3.80;99.90
14097;DHT22;7125;48.106;11.544;2022-11-21T15:56:05;3.80;99.90
14097;DHT22;7125;48.106;11.544;2022-11-21T15:58:32;3.70;99.90
14097;DHT22;7125;48.106;11.544;2022-11-21T16:00:59;3.70;99.90
14097;DHT22;7125;48.106;11.544;2022-11-21T16:03:26;3.60;99.90
14097;DHT22;7125;48.106;11.544;2022-11-21T16:05:53;3.50;99.90
14097;DHT22;7125;48.106;11.544;2022-11-21T16:08:22;3.50;99.90
14097;DHT22;7125;48.106;11.544;2022-11-21T16:10:49;3.40;99.90
14097;DHT22;7125;48.106;11.544;2022-11-21T16:13:15;3.40;99.90
14097;DHT22;7125;48.106;11.544;2022-11-21T16:15:42;3.30;99.90
14097;DHT22;7125;48.106;11.544;2022-11-21T16:18:09;3.30;99.90
14097;DHT22;7125;48.106;11.544;2022-11-21T16:20:36;3.20;99.90
14097;DHT22;7125;48.106;11.544;2022-11-21T16:23:03;3.20;99.90
14097;DHT22;7125;48.106;11.544;2022-11-21T16:25:32;3.10;99.90
14097;DHT22;7125;48.106;11.544;2022-11-21T16:27:58;3.10;99.90
14097;DHT22;7125;48.106;11.544;2022-11-21T16:30:25;3.10;99.90
14097;DHT22;7125;48.106;11.544;2022-11-21T16:32:52;3.10;99.90